»·PEaware :: N9193G KLAX-KSAN

N9193G :: KLAX-KSAN

FLIGHT INFORMATION

Flight Status: Arrived
Operator: Privately registered:
United States
More flights under this callsign
Pilot: Seung K. (26649)
Aircraft: CESSNA 206 STATIONAIR
(C206)
More flights by this aircraft type
Origin: KLAX Los Angeles Intl
United States
Destination: KSAN San Diego Intl-Lindbergh
United States
More flights between these airports :: More routes between these airports
Route: +DCT
File this flight plan on PilotEdge
Remarks: CAT-11 RATING
Altitude:
(Current/Filed)
5,500ft
Speed:
(Current/Filed)
200kts
Departed: 27-Dec-19 07:15 PM
Arrived: 27-Dec-19 08:25 PM
Distance/Time
Traveled:
95nm/1:10
Distance/Time
To Go:
Arrived

Flight Plot

Page will automatically refresh every two minutes.

Flight plan parsing failed; only flown route is shown


Map Options




Map Legend


Flown Route
Filed Route
Departure Airport
Arrival Airport
Navaid (VOR, NDB)
Fix

Horizontal Profiles

Position Reports

Time Latitude Longitude Heading Altitude Ground
Speed
27-Dec-19 18:55 33.942287 -118.379637 44 95ft 0kts
27-Dec-19 18:56 33.942287 -118.379637 44 95ft 0kts
27-Dec-19 18:57 33.942287 -118.379637 44 95ft 0kts
27-Dec-19 18:58 33.942287 -118.379637 44 95ft 0kts
27-Dec-19 18:59 33.942287 -118.379637 44 95ft 0kts
27-Dec-19 19:00 33.942287 -118.379637 44 95ft 0kts
27-Dec-19 19:01 33.942287 -118.379637 44 95ft 0kts
27-Dec-19 19:02 33.942287 -118.379637 44 95ft 0kts
27-Dec-19 19:03 33.942287 -118.379637 44 95ft 0kts
27-Dec-19 19:04 33.942287 -118.379637 44 95ft 0kts
27-Dec-19 19:05 33.942064 -118.379898 44 95ft 3kts
27-Dec-19 19:06 33.941668 -118.380221 225 95ft 0kts
27-Dec-19 19:07 33.940783 -118.380449 179 95ft 6kts
27-Dec-19 19:08 33.940684 -118.380428 162 95ft 0kts
27-Dec-19 19:09 33.940684 -118.380428 162 95ft 0kts
27-Dec-19 19:10 33.942297 -118.379645 44 95ft 0kts
27-Dec-19 19:11 33.942091 -118.380024 223 96ft 9kts
27-Dec-19 19:12 33.940834 -118.380440 176 95ft 7kts
27-Dec-19 19:13 33.940683 -118.380402 157 95ft 5kts
27-Dec-19 19:14 33.939462 -118.383394 260 96ft 66kts
27-Dec-19 19:15 33.939369 -118.397206 267 847ft 78kts
27-Dec-19 19:16 33.940307 -118.415035 266 1409ft 102kts
27-Dec-19 19:17 33.933581 -118.428084 175 2306ft 100kts
27-Dec-19 19:18 33.916526 -118.422819 176 2963ft 115kts
27-Dec-19 19:19 33.897283 -118.420607 167 3606ft 126kts
27-Dec-19 19:20 33.881202 -118.405107 129 3992ft 149kts
27-Dec-19 19:21 33.866927 -118.382093 136 3971ft 156kts
27-Dec-19 19:22 33.850553 -118.361184 141 3929ft 155kts
27-Dec-19 19:23 33.833129 -118.341149 142 4101ft 148kts
27-Dec-19 19:24 33.815387 -118.321733 144 4322ft 146kts
27-Dec-19 19:25 33.797328 -118.302351 144 4605ft 146kts
27-Dec-19 19:26 33.779563 -118.283394 144 4796ft 146kts
27-Dec-19 19:27 33.761106 -118.263750 144 5005ft 146kts
27-Dec-19 19:28 33.741764 -118.243193 144 5217ft 147kts
27-Dec-19 19:29 33.721124 -118.221277 144 5418ft 147kts
27-Dec-19 19:30 33.697474 -118.196184 144 5650ft 147kts
27-Dec-19 19:31 33.673414 -118.170685 144 5843ft 150kts
27-Dec-19 19:32 33.648619 -118.144446 144 5846ft 154kts
27-Dec-19 19:33 33.623766 -118.118138 144 5846ft 155kts
27-Dec-19 19:35 33.598961 -118.091903 144 5846ft 155kts
27-Dec-19 19:36 33.574337 -118.065882 144 5846ft 155kts
27-Dec-19 19:37 33.549708 -118.039877 144 5846ft 155kts
27-Dec-19 19:38 33.525263 -118.014086 144 5846ft 155kts
27-Dec-19 19:39 33.502114 -117.989682 144 5846ft 155kts
27-Dec-19 19:40 33.478961 -117.965291 144 5846ft 155kts
27-Dec-19 19:41 33.455776 -117.940886 144 5846ft 155kts
27-Dec-19 19:42 33.435706 -117.919773 144 5846ft 155kts
27-Dec-19 19:43 33.413110 -117.896019 144 5846ft 155kts
27-Dec-19 19:44 33.390076 -117.871822 144 5846ft 155kts
27-Dec-19 19:45 33.364625 -117.845108 144 5846ft 155kts
27-Dec-19 19:46 33.341282 -117.820625 144 5846ft 155kts
27-Dec-19 19:47 33.316985 -117.795161 144 5846ft 155kts
27-Dec-19 19:48 33.292846 -117.769881 144 5846ft 155kts
27-Dec-19 19:49 33.268241 -117.744133 144 5846ft 155kts
27-Dec-19 19:50 33.245179 -117.720019 144 5846ft 155kts
27-Dec-19 19:51 33.222684 -117.696515 144 5846ft 155kts
27-Dec-19 19:52 33.203961 -117.676966 144 5845ft 155kts
27-Dec-19 19:52 33.186240 -117.658474 144 5846ft 155kts
27-Dec-19 19:54 33.160365 -117.631481 144 5846ft 155kts
27-Dec-19 19:55 33.138479 -117.608675 144 5846ft 155kts
27-Dec-19 19:55 33.120484 -117.589940 144 5787ft 156kts
27-Dec-19 19:57 33.100109 -117.566417 131 5429ft 127kts
27-Dec-19 19:58 33.087773 -117.544522 130 5124ft 122kts
27-Dec-19 19:58 33.077336 -117.527890 135 4765ft 119kts
27-Dec-19 19:59 33.063923 -117.509061 141 4321ft 116kts
27-Dec-19 20:01 33.047516 -117.488852 141 3838ft 115kts
27-Dec-19 20:01 33.034679 -117.474794 146 3481ft 137kts
27-Dec-19 20:02 33.014983 -117.455537 146 3602ft 147kts
27-Dec-19 20:03 32.995017 -117.436121 146 3743ft 148kts
27-Dec-19 20:04 32.974423 -117.416114 146 3900ft 148kts
27-Dec-19 20:05 32.955235 -117.395347 141 3896ft 154kts
27-Dec-19 20:06 32.936139 -117.373408 141 3896ft 155kts
27-Dec-19 20:07 32.917272 -117.351707 141 3468ft 149kts
27-Dec-19 20:08 32.900120 -117.331583 141 2914ft 134kts
27-Dec-19 20:09 32.882527 -117.310637 142 2353ft 130kts
27-Dec-19 20:10 32.864749 -117.289051 141 2093ft 108kts
27-Dec-19 20:11 32.851485 -117.272052 141 2100ft 97kts
27-Dec-19 20:12 32.840647 -117.257885 141 2095ft 93kts
27-Dec-19 20:13 32.831022 -117.247428 153 2096ft 88kts
27-Dec-19 20:14 32.821004 -117.238675 153 2114ft 87kts
27-Dec-19 20:15 32.810079 -117.230285 166 2097ft 86kts
27-Dec-19 20:16 32.796272 -117.223536 159 2097ft 92kts
27-Dec-19 20:17 32.784525 -117.211946 145 2097ft 97kts
27-Dec-19 20:18 32.772181 -117.198698 145 2139ft 136kts
27-Dec-19 20:19 32.755859 -117.182187 147 2058ft 128kts
27-Dec-19 20:20 32.744577 -117.167945 131 1251ft 117kts
27-Dec-19 20:21 32.735399 -117.162945 226 769ft 70kts
27-Dec-19 20:22 32.730504 -117.171340 251 363ft 50kts
27-Dec-19 20:23 32.731312 -117.180151 276 56ft 51kts
27-Dec-19 20:24 32.733246 -117.184175 7 16ft 16kts
27-Dec-19 20:25 32.734694 -117.183821 13 17ft 7kts
27-Dec-19 20:26 32.734936 -117.183768 8 17ft 0kts

Navigation Log

Ident Type
Flight plan parsing failed, navigation log unavailable